KBRL

Southeast Iowa Regional Airport

Burlington, Iowa, USA
METAR KBRL 162353Z AUTO 00000KT 10SM CLR 04/M01 A3019 RMK AO2 SLP228 T00441006 10100 20039 53013
Observed Flight Rules
Dec-16 @ 23:53 UTC (31 minutes ago) Visual Flight Rules
Visibility Clouds
10 miles
  • Clear skies
Temperatures Readings
Current 4°C / 39°F
Dewpoint -1°C / 30°F
Humidity 70%
Altimeter 30.19" Hg
Pressure 1022.8 hPa
Elevation 211
METAR KBRL 162353Z AUTO 00000KT 10SM CLR 04/M01 A3019 RMK AO2 SLP228 T00441006 10100 20039 53013
Observed Flight Rules
Dec-16 @ 23:53 UTC
(31 minutes ago)
VFR
Clouds
  • Clear skies
Temperature Dewpoint
4°C / 39°F -1°C / 30°F
Humidity Altimeter Pressure
70% 30.19" Hg 1022.8 hPa